createdAt,value
2022-08-11T00:01:15.122Z,2.58
2022-08-11T00:03:47.483Z,2.67
2022-08-11T00:06:22.990Z,2.85
2022-08-11T00:08:51.200Z,2.90
2022-08-11T00:11:19.605Z,2.47
2022-08-11T00:13:49.169Z,3.05
2022-08-11T00:16:22.632Z,2.67
2022-08-11T00:18:52.279Z,2.80
2022-08-11T00:21:54.609Z,2.78
2022-08-11T00:24:12.585Z,2.83
2022-08-11T00:26:39.313Z,2.72
2022-08-11T00:29:12.733Z,2.65
2022-08-11T00:31:46.527Z,2.78
2022-08-11T00:34:16.091Z,2.85
2022-08-11T00:36:56.124Z,2.72
2022-08-11T00:39:28.668Z,3.03
2022-08-11T00:42:15.323Z,2.97
2022-08-11T00:44:57.071Z,2.55
2022-08-11T00:47:35.494Z,2.72
2022-08-11T00:50:38.882Z,2.83
2022-08-11T00:53:26.238Z,2.83
2022-08-11T00:56:14.293Z,3.00
2022-08-11T00:59:05.817Z,2.78
2022-08-11T01:02:30.762Z,2.80
2022-08-11T01:05:16.066Z,2.95
2022-08-11T01:08:09.024Z,2.70
2022-08-11T01:10:47.795Z,2.90
2022-08-11T01:13:41.306Z,3.03
2022-08-11T01:16:08.418Z,3.50
2022-08-11T01:19:18.801Z,2.80
2022-08-11T01:22:06.861Z,2.65
2022-08-11T01:24:53.275Z,2.83
2022-08-11T01:28:14.789Z,3.13
2022-08-11T01:31:14.890Z,3.40
2022-08-11T01:34:20.878Z,3.28
2022-08-11T01:39:56.254Z,3.20
2022-08-11T01:42:59.741Z,3.28
2022-08-11T01:45:49.730Z,3.40
2022-08-11T01:48:40.900Z,3.13
2022-08-11T01:51:59.908Z,3.17
2022-08-11T01:54:40.850Z,3.13
2022-08-11T01:57:29.407Z,3.40
2022-08-11T02:00:19.252Z,3.10
2022-08-11T02:03:12.480Z,3.28
2022-08-11T02:06:30.628Z,3.53
2022-08-11T02:09:17.984Z,3.53
2022-08-11T02:11:49.354Z,3.30
2022-08-11T02:14:29.334Z,3.47
2022-08-11T02:17:37.750Z,3.40
2022-08-11T02:20:55.946Z,3.58
2022-08-11T02:24:04.912Z,3.47
2022-08-11T02:27:00.851Z,3.25
2022-08-11T02:29:51.075Z,3.03
2022-08-11T02:32:45.418Z,3.50
2022-08-11T02:35:27.752Z,3.70
2022-08-11T02:38:18.984Z,3.80
2022-08-11T02:41:30.473Z,3.70
2022-08-11T02:44:06.049Z,4.22
2022-08-11T02:46:53.961Z,3.50
2022-08-11T02:50:03.458Z,3.55
2022-08-11T02:53:29.510Z,3.53
2022-08-11T02:56:16.241Z,3.80
2022-08-11T02:59:12.989Z,4.18
2022-08-11T03:01:49.235Z,4.00
2022-08-11T03:04:25.137Z,3.83
2022-08-11T03:07:29.852Z,3.80
2022-08-11T03:10:11.320Z,3.95
2022-08-11T03:13:23.045Z,3.92
2022-08-11T03:16:21.117Z,4.13
2022-08-11T03:18:48.211Z,4.15
2022-08-11T03:21:23.737Z,4.22
2022-08-11T03:24:20.817Z,4.20
2022-08-11T03:26:53.838Z,3.70
2022-08-11T03:29:31.154Z,3.97
2022-08-11T03:32:19.355Z,4.15
2022-08-11T03:34:50.541Z,4.40
2022-08-11T03:37:48.098Z,4.68
2022-08-11T03:41:02.070Z,4.43
2022-08-11T03:43:58.054Z,4.18
2022-08-11T03:46:46.953Z,4.88
2022-08-11T03:49:39.207Z,4.15
2022-08-11T03:52:16.077Z,4.53
2022-08-11T03:55:08.784Z,4.43
2022-08-11T03:58:06.678Z,4.72
2022-08-11T04:00:56.954Z,4.50
2022-08-11T04:03:40.469Z,4.68
2022-08-11T04:06:17.772Z,4.72
2022-08-11T04:09:23.741Z,4.35
2022-08-11T04:12:45.712Z,4.43
2022-08-11T04:15:55.932Z,4.40
2022-08-11T04:18:28.837Z,4.35
2022-08-11T04:21:22.524Z,4.50
2022-08-11T04:24:38.308Z,4.00
2022-08-11T04:27:36.752Z,4.70
2022-08-11T04:30:28.306Z,4.65
2022-08-11T04:33:09.383Z,4.30
2022-08-11T04:36:02.232Z,4.07
2022-08-11T04:38:53.354Z,4.30
2022-08-11T04:42:01.304Z,4.35
2022-08-11T04:45:11.879Z,4.65
2022-08-11T04:48:39.969Z,4.65
2022-08-11T04:52:04.194Z,4.50
2022-08-11T04:55:19.639Z,4.70
2022-08-11T04:58:31.336Z,4.72
2022-08-11T05:01:41.473Z,4.75
2022-08-11T05:04:30.938Z,4.72
2022-08-11T05:07:39.493Z,4.30
2022-08-11T05:10:20.953Z,4.78
2022-08-11T05:15:44.673Z,4.97
2022-08-11T05:18:38.763Z,4.63
2022-08-11T05:21:28.460Z,4.43
2022-08-11T05:24:45.747Z,4.90
2022-08-11T05:27:34.238Z,4.72
2022-08-11T05:30:34.375Z,4.45
2022-08-11T05:33:40.502Z,4.55
2022-08-11T05:36:42.044Z,5.00
2022-08-11T05:39:36.668Z,4.75
2022-08-11T05:42:29.777Z,4.90
2022-08-11T05:45:24.900Z,4.93
2022-08-11T05:48:11.025Z,4.72
2022-08-11T05:50:57.838Z,4.82
2022-08-11T05:53:46.198Z,5.10
2022-08-11T05:56:18.778Z,5.03
2022-08-11T05:58:51.681Z,4.88
2022-08-11T06:01:27.616Z,4.85
2022-08-11T06:04:18.430Z,4.97
2022-08-11T06:06:58.580Z,4.75
2022-08-11T06:09:28.945Z,5.72
2022-08-11T06:11:59.944Z,5.20
2022-08-11T06:14:28.377Z,5.63
2022-08-11T06:17:00.285Z,5.03
2022-08-11T06:20:07.197Z,5.10
2022-08-11T06:22:34.824Z,5.20
2022-08-11T06:25:04.742Z,4.88
2022-08-11T06:27:34.388Z,4.93
2022-08-11T06:30:02.793Z,5.22
2022-08-11T06:32:33.948Z,4.80
2022-08-11T06:35:18.606Z,9.48
2022-08-11T06:37:49.288Z,6.30
2022-08-11T06:41:12.642Z,4.68
2022-08-11T06:44:04.644Z,4.75
2022-08-11T06:46:38.739Z,4.90
2022-08-11T06:49:30.347Z,5.13
2022-08-11T06:52:04.907Z,4.38
2022-08-11T06:54:41.306Z,4.72
2022-08-11T06:57:31.695Z,4.85
2022-08-11T07:00:18.912Z,4.70
2022-08-11T07:03:09.191Z,4.63
2022-08-11T07:05:53.888Z,4.22
2022-08-11T07:09:02.205Z,4.15
2022-08-11T07:12:18.631Z,4.50
2022-08-11T07:16:11.262Z,4.43
2022-08-11T07:18:46.431Z,4.05
2022-08-11T07:25:03.548Z,5.50
2022-08-11T07:28:00.405Z,4.10
2022-08-11T07:30:27.544Z,4.65
2022-08-11T07:32:59.489Z,4.15
2022-08-11T07:35:42.551Z,4.32
2022-08-11T07:38:22.721Z,4.10
2022-08-11T07:40:52.427Z,4.28
2022-08-11T07:43:19.657Z,4.30
2022-08-11T07:46:05.877Z,3.92
2022-08-11T07:48:53.478Z,3.80
2022-08-11T07:51:40.093Z,4.18
2022-08-11T07:54:17.228Z,4.05
2022-08-11T07:56:54.085Z,4.18
2022-08-11T08:00:03.381Z,4.03
2022-08-11T08:02:57.833Z,3.70
2022-08-11T08:05:44.511Z,3.65
2022-08-11T08:08:30.126Z,3.72
2022-08-11T08:11:16.202Z,3.83
2022-08-11T08:14:02.163Z,4.05
2022-08-11T08:16:49.783Z,3.60
2022-08-11T08:19:19.044Z,3.67
2022-08-11T08:21:47.123Z,3.95
2022-08-11T08:24:15.178Z,3.55
2022-08-11T08:26:59.024Z,3.95
2022-08-11T08:29:51.286Z,3.95
2022-08-11T08:32:19.535Z,3.47
2022-08-11T08:34:47.707Z,3.40
2022-08-11T08:37:45.719Z,3.30
2022-08-11T08:40:02.790Z,3.40
2022-08-11T08:42:32.960Z,3.38
2022-08-11T08:45:07.220Z,3.15
2022-08-11T08:47:42.998Z,5.10
2022-08-11T08:50:19.425Z,3.42
2022-08-11T08:52:54.319Z,3.25
2022-08-11T08:57:50.497Z,3.40
2022-08-11T09:00:23.174Z,3.30
2022-08-11T09:02:51.374Z,3.08
2022-08-11T09:07:51.037Z,3.30
2022-08-11T09:10:20.263Z,3.58
2022-08-11T09:12:48.199Z,2.83
2022-08-11T09:15:19.922Z,3.03
2022-08-11T09:17:51.613Z,2.88
2022-08-11T09:20:26.442Z,3.40
2022-08-11T09:26:21.437Z,3.10
2022-08-11T09:28:49.990Z,3.10
2022-08-11T09:31:17.420Z,2.92
2022-08-11T09:33:45.867Z,2.92
2022-08-11T09:36:31.954Z,3.17
2022-08-11T09:39:21.344Z,2.90
2022-08-11T09:42:00.945Z,3.30
2022-08-11T09:47:25.067Z,3.38
2022-08-11T09:49:56.197Z,3.00
2022-08-11T09:52:24.661Z,3.10
2022-08-11T09:54:52.408Z,3.22
2022-08-11T09:57:39.195Z,2.88
2022-08-11T10:00:13.069Z,2.88
2022-08-11T10:02:47.053Z,3.20
2022-08-11T10:05:36.306Z,3.17
2022-08-11T10:08:05.105Z,2.70
2022-08-11T10:10:35.991Z,3.05
2022-08-11T10:14:30.572Z,2.97
2022-08-11T10:15:59.725Z,2.75
2022-08-11T10:18:42.906Z,3.00
2022-08-11T10:21:14.298Z,2.67
2022-08-11T10:24:05.896Z,2.80
2022-08-11T10:26:53.602Z,2.75
2022-08-11T10:29:45.329Z,2.90
2022-08-11T10:32:49.383Z,2.75
2022-08-11T10:35:26.158Z,2.47
2022-08-11T10:38:07.544Z,2.45
2022-08-11T10:40:39.957Z,2.60
2022-08-11T10:43:13.567Z,3.22
2022-08-11T10:46:04.027Z,2.67
2022-08-11T10:48:35.896Z,2.70
2022-08-11T10:51:13.586Z,2.58
2022-08-11T10:54:02.981Z,2.85
2022-08-11T10:56:52.134Z,2.60
2022-08-11T10:59:19.140Z,2.35
2022-08-11T11:01:46.585Z,2.50
2022-08-11T11:04:16.557Z,2.53
2022-08-11T11:07:04.467Z,2.58
2022-08-11T11:09:37.404Z,2.35
2022-08-11T11:12:53.600Z,2.50
2022-08-11T11:15:40.641Z,2.60
2022-08-11T11:18:16.255Z,2.75
2022-08-11T11:20:47.846Z,2.67
2022-08-11T11:23:22.927Z,2.33
2022-08-11T11:26:06.657Z,2.70
2022-08-11T11:28:57.920Z,2.63
2022-08-11T11:32:02.388Z,2.55
2022-08-11T11:35:06.821Z,2.53
2022-08-11T11:37:35.535Z,2.55
2022-08-11T11:40:10.309Z,2.67
2022-08-11T11:42:40.209Z,2.50
2022-08-11T11:45:09.394Z,2.58
2022-08-11T11:47:44.499Z,2.40
2022-08-11T11:50:12.854Z,2.47
2022-08-11T11:52:41.065Z,2.50
2022-08-11T11:55:08.946Z,2.67
2022-08-11T11:57:58.565Z,2.70
2022-08-11T12:00:45.066Z,2.22
2022-08-11T12:03:13.127Z,2.30
2022-08-11T12:05:43.432Z,2.50
2022-08-11T12:08:16.135Z,2.60
2022-08-11T12:11:13.261Z,2.38
2022-08-11T12:13:42.261Z,2.30
2022-08-11T12:16:34.371Z,2.30
2022-08-11T12:19:02.611Z,2.30
2022-08-11T12:21:30.345Z,2.00
2022-08-11T12:24:19.407Z,2.22
2022-08-11T12:27:14.722Z,2.20
2022-08-11T12:29:43.684Z,2.17
2022-08-11T12:32:11.418Z,2.10
2022-08-11T12:34:38.364Z,2.22
2022-08-11T12:37:10.743Z,2.35
2022-08-11T12:43:20.689Z,2.22
2022-08-11T12:45:58.361Z,2.40
2022-08-11T12:49:00.730Z,2.30
2022-08-11T12:52:12.173Z,2.50
2022-08-11T12:54:52.030Z,2.10
2022-08-11T12:57:45.661Z,2.30
2022-08-11T13:00:32.981Z,2.28
2022-08-11T13:03:18.952Z,2.30
2022-08-11T13:05:47.391Z,2.47
2022-08-11T13:08:15.509Z,2.30
2022-08-11T13:11:02.107Z,2.25
2022-08-11T13:13:52.587Z,2.25
2022-08-11T13:16:17.788Z,2.20
2022-08-11T13:18:45.016Z,2.35
2022-08-11T13:21:20.553Z,2.00
2022-08-11T13:24:00.664Z,2.25
2022-08-11T13:26:48.722Z,2.20
2022-08-11T13:29:23.136Z,2.30
2022-08-11T13:31:52.043Z,2.30
2022-08-11T13:34:20.330Z,2.15
2022-08-11T13:39:16.506Z,2.30
2022-08-11T13:41:45.120Z,2.40
2022-08-11T13:44:18.164Z,2.28
2022-08-11T13:46:48.743Z,2.38
2022-08-11T13:49:21.706Z,2.40
2022-08-11T13:51:49.204Z,2.40
2022-08-11T13:54:19.598Z,2.20
2022-08-11T13:56:49.538Z,2.33
2022-08-11T13:59:29.959Z,2.13
2022-08-11T14:02:28.670Z,2.20
2022-08-11T14:05:08.016Z,2.10
2022-08-11T14:07:41.916Z,2.38
2022-08-11T14:10:11.161Z,2.60
2022-08-11T14:12:58.753Z,2.20
2022-08-11T14:15:32.936Z,2.42
2022-08-11T14:18:19.056Z,2.25
2022-08-11T14:21:16.999Z,2.40
2022-08-11T14:23:47.412Z,2.20
2022-08-11T14:26:29.185Z,2.17
2022-08-11T14:29:17.721Z,2.20
2022-08-11T14:31:50.923Z,2.38
2022-08-11T14:34:21.500Z,2.20
2022-08-11T14:36:54.185Z,2.25
2022-08-11T14:39:29.257Z,2.20
2022-08-11T14:42:20.616Z,2.40
2022-08-11T14:45:08.666Z,2.15
2022-08-11T14:47:37.591Z,2.30
2022-08-11T14:50:11.605Z,2.30
2022-08-11T14:52:49.861Z,2.13
2022-08-11T14:55:37.068Z,2.20
2022-08-11T14:58:05.054Z,2.22
2022-08-11T15:00:34.315Z,2.00
2022-08-11T15:03:12.652Z,2.10
2022-08-11T15:05:56.092Z,2.30
2022-08-11T15:08:52.483Z,2.30
2022-08-11T15:11:40.995Z,2.13
2022-08-11T15:14:09.647Z,2.30
2022-08-11T15:19:25.873Z,2.00
2022-08-11T15:22:11.690Z,1.92
2022-08-11T15:24:38.652Z,2.28
2022-08-11T15:27:29.950Z,2.05
2022-08-11T15:30:32.229Z,2.30
2022-08-11T15:33:26.510Z,2.25
2022-08-11T15:36:14.396Z,2.08
2022-08-11T15:38:47.253Z,2.10
2022-08-11T15:41:36.273Z,2.20
2022-08-11T15:44:51.493Z,2.10
2022-08-11T15:47:17.022Z,2.40
2022-08-11T15:50:11.095Z,2.28
2022-08-11T15:52:38.790Z,2.30
2022-08-11T15:55:08.857Z,2.60
2022-08-11T15:57:55.941Z,2.40
2022-08-11T16:04:06.030Z,2.60
2022-08-11T16:06:16.246Z,2.20
2022-08-11T16:08:45.584Z,2.45
2022-08-11T16:11:13.747Z,2.50
2022-08-11T16:13:40.886Z,2.30
2022-08-11T16:16:14.634Z,2.40
2022-08-11T16:18:52.123Z,2.40
2022-08-11T16:21:35.257Z,2.40
2022-08-11T16:24:09.497Z,3.00
2022-08-11T16:27:10.235Z,2.35
2022-08-11T16:29:43.655Z,2.78
2022-08-11T16:32:18.280Z,2.30
2022-08-11T16:35:07.839Z,2.50
2022-08-11T16:37:55.157Z,2.22
2022-08-11T16:40:22.899Z,2.13
2022-08-11T16:43:11.009Z,2.22
2022-08-11T16:45:58.840Z,2.30
2022-08-11T16:48:35.856Z,2.58
2022-08-11T16:51:10.684Z,2.00
2022-08-11T16:54:00.131Z,2.10
2022-08-11T16:56:49.121Z,2.20
2022-08-11T16:59:21.089Z,2.00
2022-08-11T17:01:53.591Z,2.30
2022-08-11T17:05:04.252Z,2.35
2022-08-11T17:07:50.219Z,2.20
2022-08-11T17:10:57.656Z,1.95
2022-08-11T17:13:36.864Z,2.05
2022-08-11T17:16:09.236Z,2.13
2022-08-11T17:19:05.325Z,2.15
2022-08-11T17:21:57.375Z,2.33
2022-08-11T17:24:27.599Z,2.20
2022-08-11T17:26:59.163Z,1.92
2022-08-11T17:29:53.616Z,2.20
2022-08-11T17:32:56.830Z,2.95
2022-08-11T17:35:39.246Z,2.67
2022-08-11T17:38:22.717Z,2.60
2022-08-11T17:41:23.460Z,2.53
2022-08-11T17:44:11.030Z,2.63
2022-08-11T17:47:01.171Z,2.40
2022-08-11T17:49:37.109Z,3.88
2022-08-11T17:52:26.392Z,2.45
2022-08-11T17:55:13.743Z,2.72
2022-08-11T17:58:00.374Z,2.30
2022-08-11T18:00:27.702Z,2.40
2022-08-11T18:03:14.541Z,2.20
2022-08-11T18:05:45.825Z,2.00
2022-08-11T18:08:35.262Z,1.83
2022-08-11T18:12:10.721Z,2.50
2022-08-11T18:14:35.490Z,5.03
2022-08-11T18:17:27.327Z,1.92
2022-08-11T18:20:13.312Z,1.85
2022-08-11T18:23:01.806Z,2.20
2022-08-11T18:25:52.812Z,2.00
2022-08-11T18:28:45.098Z,2.10
2022-08-11T18:31:34.113Z,2.25
2022-08-11T18:34:25.084Z,2.40
2022-08-11T18:37:33.653Z,2.60
2022-08-11T18:40:29.871Z,2.42
2022-08-11T18:43:18.770Z,2.55
2022-08-11T18:46:07.893Z,2.35
2022-08-11T18:49:00.153Z,1.90
2022-08-11T18:51:46.573Z,1.90
2022-08-11T18:54:34.065Z,2.00
2022-08-11T18:57:25.011Z,2.13
2022-08-11T19:00:13.087Z,2.20
2022-08-11T19:02:59.166Z,3.22
2022-08-11T19:06:35.810Z,3.10
2022-08-11T19:08:58.576Z,2.75
2022-08-11T19:11:45.481Z,2.40
2022-08-11T19:14:32.176Z,2.13
2022-08-11T19:17:44.141Z,2.10
2022-08-11T19:20:31.639Z,2.10
2022-08-11T19:23:18.674Z,2.50
2022-08-11T19:26:05.163Z,2.63
2022-08-11T19:28:51.717Z,2.40
2022-08-11T19:31:43.796Z,2.40
2022-08-11T19:34:34.936Z,1.98
2022-08-11T19:37:24.630Z,2.00
2022-08-11T19:40:18.425Z,2.30
2022-08-11T19:43:18.640Z,2.08
2022-08-11T19:46:13.356Z,2.50
2022-08-11T19:49:00.371Z,2.25
2022-08-11T19:51:47.892Z,2.40
2022-08-11T19:54:42.770Z,2.60
2022-08-11T19:57:38.703Z,3.47
2022-08-11T20:00:30.559Z,5.35
2022-08-11T20:03:18.131Z,2.45
2022-08-11T20:06:05.518Z,2.70
2022-08-11T20:08:56.394Z,2.63
2022-08-11T20:11:45.926Z,3.13
2022-08-11T20:14:32.660Z,4.60
2022-08-11T20:17:19.147Z,3.10
2022-08-11T20:20:06.233Z,3.88
2022-08-11T20:22:53.145Z,3.50
2022-08-11T20:25:40.870Z,2.05
2022-08-11T20:28:27.614Z,3.08
2022-08-11T20:31:14.154Z,3.33
2022-08-11T20:34:01.495Z,2.40
2022-08-11T20:36:54.545Z,2.47
2022-08-11T20:42:30.434Z,2.10
2022-08-11T20:45:23.501Z,2.28
2022-08-11T20:48:14.922Z,2.20
2022-08-11T20:51:07.188Z,2.60
2022-08-11T20:53:57.237Z,2.17
2022-08-11T20:56:45.573Z,2.42
2022-08-11T20:59:33.324Z,2.25
2022-08-11T21:02:36.096Z,2.30
2022-08-11T21:06:04.684Z,2.63
2022-08-11T21:08:28.776Z,2.50
2022-08-11T21:11:14.908Z,2.50
2022-08-11T21:14:13.944Z,2.30
2022-08-11T21:17:04.448Z,2.35
2022-08-11T21:20:16.956Z,2.60
2022-08-11T21:23:18.495Z,2.60
2022-08-11T21:26:42.601Z,2.30
2022-08-11T21:29:28.984Z,2.60
2022-08-11T21:32:16.246Z,2.60
2022-08-11T21:37:50.335Z,2.55
2022-08-11T21:40:39.530Z,2.60
2022-08-11T21:43:26.205Z,2.75
2022-08-11T21:46:12.480Z,2.60
2022-08-11T21:48:58.922Z,2.60
2022-08-11T21:51:44.503Z,2.60
2022-08-11T21:54:30.444Z,2.20
2022-08-11T21:57:17.937Z,2.55
2022-08-11T22:00:18.499Z,2.58
2022-08-11T22:03:05.350Z,2.63
2022-08-11T22:05:52.962Z,2.38
2022-08-11T22:08:39.660Z,3.10
2022-08-11T22:11:32.388Z,2.70
2022-08-11T22:14:22.324Z,2.60
2022-08-11T22:17:08.337Z,2.70
2022-08-11T22:19:55.794Z,2.50
2022-08-11T22:22:52.087Z,2.60
2022-08-11T22:25:39.090Z,2.45
2022-08-11T22:28:32.337Z,2.63
2022-08-11T22:31:19.439Z,2.90
2022-08-11T22:34:04.814Z,2.40
2022-08-11T22:36:51.816Z,2.70
2022-08-11T22:39:37.869Z,2.95
2022-08-11T22:42:33.155Z,2.90
2022-08-11T22:45:19.910Z,2.90
2022-08-11T22:48:07.870Z,2.72
2022-08-11T22:50:55.808Z,2.72
2022-08-11T22:53:57.367Z,2.70
2022-08-11T22:56:46.414Z,3.10
2022-08-11T22:59:32.321Z,2.80
2022-08-11T23:02:17.876Z,2.72
2022-08-11T23:05:03.768Z,2.72
2022-08-11T23:07:51.959Z,2.80
2022-08-11T23:10:39.802Z,2.80
2022-08-11T23:13:27.088Z,2.88
2022-08-11T23:16:16.541Z,2.83
2022-08-11T23:19:02.238Z,2.65
2022-08-11T23:21:49.526Z,2.67
2022-08-11T23:24:35.901Z,2.60
2022-08-11T23:27:22.914Z,2.70
2022-08-11T23:30:11.019Z,2.63
2022-08-11T23:32:57.560Z,2.63
2022-08-11T23:35:54.860Z,2.70
2022-08-11T23:38:43.607Z,2.70
2022-08-11T23:41:32.059Z,3.10
2022-08-11T23:44:19.731Z,2.67
2022-08-11T23:47:07.222Z,2.92
2022-08-11T23:49:55.173Z,2.65
2022-08-11T23:52:41.189Z,2.85
2022-08-11T23:55:27.571Z,3.10
2022-08-11T23:58:12.916Z,3.10
